Hlavní strana
METAR-TAF:

METAR-TAF

Letiště :

Ammán, Jordánsko

zeměpisná šířka: 31-59N, zeměpisná délka: 035-59E, výška: 767 m

Aktuální stav počasí

Zpráva byla vytvořena před 37 minutami, v 10:00 UTC
Severozápadní vítr 6 kt
Teplota 14°C
Vlhkost vzduchu 51%
Tlak 1022 hPa
Viditelnost: 6000 m
Skoro jasno ve výšce 2500 ft

METAR: OJAM 251000Z 31006KT 6000 FEW025 14/04 Q1022 NOSIG

Čas: 12:37 (10:37 UTC)

Předpověď počasí

Zpráva byla vytvořena před 5 hodinami a 42 minutami, v 04:55 UTC
Předpověď platná od 25 v 06 UTC do 26 v 12 UTC
vítr z různých směrů 1 kt
Viditelnost: 6000 m
Skoro jasno ve výšce 3000 ft
Změna
od 25 v 10 UTC do 25 v 12 UTC
Západní vítr 10 kt

TAF: OJAM 250455Z 2506/2612 VRB01KT 6000 FEW030 BECMG 2510/2512 28010KT

Stav a předpovědi počasí z více než 4 000 letišť (zprávy METAR a TAF).

Červené a žluté tečky na mapě představují dostupné meteorologické stanice.

Když kurzor umístíte na tečku, zobrazí se název stanice.

Pak kliknutím zobrazíte stav a předpověď počasí.

Chcete-li změnit mapu, kliknutím na zelené tlačítko se znaménkem +mapu přiblížíte, kliknutím na zelené tlačítko se znaménkem – mapu oddálíte a kliknutím na zelené šipky přejdete na sousední mapy.


METAR-TAF: